createdAt,value
2017-05-04T00:02:28.607Z,93.40
2017-05-04T00:04:57.581Z,93.40
2017-05-04T00:07:26.538Z,93.60
2017-05-04T00:09:55.455Z,93.60
2017-05-04T00:12:24.438Z,93.70
2017-05-04T00:14:53.408Z,93.70
2017-05-04T00:17:22.369Z,93.80
2017-05-04T00:19:52.440Z,93.90
2017-05-04T00:22:21.393Z,94.10
2017-05-04T00:24:50.359Z,94.40
2017-05-04T00:27:19.628Z,94.30
2017-05-04T00:29:48.578Z,94.30
2017-05-04T00:32:17.543Z,94.30
2017-05-04T00:34:46.518Z,94.20
2017-05-04T00:37:15.489Z,94.20
2017-05-04T00:39:44.357Z,94.30
2017-05-04T00:42:13.354Z,94.70
2017-05-04T00:44:42.676Z,94.50
2017-05-04T00:47:11.641Z,94.40
2017-05-04T00:49:40.601Z,94.40
2017-05-04T00:52:10.643Z,94.40
2017-05-04T00:54:39.600Z,94.40
2017-05-04T00:57:09.304Z,94.40
2017-05-04T00:59:39.288Z,94.40
2017-05-04T01:02:08.203Z,94.40
2017-05-04T01:04:37.815Z,94.40
2017-05-04T01:07:07.177Z,94.40
2017-05-04T01:09:36.127Z,94.70
2017-05-04T01:12:05.097Z,94.40
2017-05-04T01:14:34.817Z,94.30
2017-05-04T01:17:03.779Z,94.40
2017-05-04T01:19:32.873Z,94.50
2017-05-04T01:22:01.822Z,94.40
2017-05-04T01:24:30.780Z,94.40
2017-05-04T01:27:00.511Z,94.40
2017-05-04T01:29:29.505Z,94.40
2017-05-04T01:31:58.481Z,94.50
2017-05-04T01:34:27.475Z,94.50
2017-05-04T01:36:56.465Z,94.50
2017-05-04T01:39:25.353Z,94.50
2017-05-04T01:41:54.460Z,94.50
2017-05-04T01:44:23.418Z,94.50
2017-05-04T01:46:53.116Z,94.60
2017-05-04T01:49:23.182Z,94.70
2017-05-04T01:51:52.154Z,94.80
2017-05-04T01:54:21.110Z,94.80
2017-05-04T01:56:50.377Z,94.80
2017-05-04T01:59:19.326Z,94.90
2017-05-04T02:01:48.276Z,94.90
2017-05-04T02:04:17.238Z,94.80
2017-05-04T02:06:46.185Z,94.90
2017-05-04T02:09:16.157Z,95.00
2017-05-04T02:11:45.881Z,94.90
2017-05-04T02:14:14.827Z,94.90
2017-05-04T02:16:44.083Z,94.90
2017-05-04T02:19:13.785Z,94.90
2017-05-04T02:21:42.736Z,94.90
2017-05-04T02:24:11.741Z,94.80
2017-05-04T02:26:40.688Z,94.70
2017-05-04T02:29:09.676Z,94.70
2017-05-04T02:31:38.643Z,94.60
2017-05-04T02:34:08.348Z,94.60
2017-05-04T02:36:37.301Z,94.60
2017-05-04T02:39:06.258Z,94.50
2017-05-04T02:41:35.224Z,94.50
2017-05-04T02:44:05.279Z,94.50
2017-05-04T02:46:34.230Z,94.40
2017-05-04T02:49:03.928Z,94.40
2017-05-04T02:51:33.013Z,94.30
2017-05-04T02:54:01.882Z,94.40
2017-05-04T02:56:30.866Z,94.30
2017-05-04T02:59:21.678Z,94.40
2017-05-04T03:01:50.654Z,94.50
2017-05-04T03:04:19.605Z,94.60
2017-05-04T03:06:49.308Z,94.60
2017-05-04T03:09:18.998Z,94.60
2017-05-04T03:11:47.969Z,94.90
2017-05-04T03:14:17.626Z,94.60
2017-05-04T03:16:46.978Z,94.60
2017-05-04T03:19:15.917Z,94.60
2017-05-04T03:21:44.959Z,94.60
2017-05-04T03:24:13.950Z,94.60
2017-05-04T03:26:42.907Z,94.60
2017-05-04T03:29:12.154Z,94.50
2017-05-04T03:31:41.117Z,94.40
2017-05-04T03:34:10.069Z,94.40
2017-05-04T03:36:39.325Z,94.30
2017-05-04T03:39:08.264Z,94.30
2017-05-04T03:41:37.223Z,94.40
2017-05-04T03:44:06.939Z,94.50
2017-05-04T03:46:36.648Z,94.60
2017-05-04T03:49:06.401Z,94.60
2017-05-04T03:51:35.352Z,94.60
2017-05-04T03:54:05.331Z,94.60
2017-05-04T03:56:34.291Z,94.70
2017-05-04T03:59:03.251Z,94.70
2017-05-04T04:01:33.325Z,94.70
2017-05-04T04:04:02.280Z,94.70
2017-05-04T04:06:31.232Z,94.70
2017-05-04T04:09:01.006Z,94.80
2017-05-04T04:11:29.984Z,94.70
2017-05-04T04:13:59.312Z,94.70
2017-05-04T04:16:28.279Z,94.70
2017-05-04T04:18:57.232Z,94.80
2017-05-04T04:21:26.233Z,94.80
2017-05-04T04:23:55.182Z,94.80
2017-05-04T04:26:24.154Z,94.80
2017-05-04T04:28:53.089Z,94.90
2017-05-04T04:31:22.797Z,94.90
2017-05-04T04:33:51.741Z,95.00
2017-05-04T04:36:20.716Z,94.90
2017-05-04T04:38:49.687Z,95.00
2017-05-04T04:41:18.991Z,95.00
2017-05-04T04:43:47.955Z,95.00
2017-05-04T04:46:17.701Z,95.00
2017-05-04T04:48:46.708Z,94.90
2017-05-04T04:51:15.682Z,94.90
2017-05-04T04:53:44.705Z,94.80
2017-05-04T04:56:13.681Z,94.90
2017-05-04T04:58:42.654Z,94.90
2017-05-04T05:01:11.607Z,94.90
2017-05-04T05:03:41.340Z,94.80
2017-05-04T05:06:10.299Z,94.80
2017-05-04T05:08:40.022Z,94.70
2017-05-04T05:11:08.889Z,94.60
2017-05-04T05:13:38.187Z,94.50
2017-05-04T05:16:07.892Z,94.60
2017-05-04T05:18:36.847Z,94.40
2017-05-04T05:21:06.144Z,94.40
2017-05-04T05:23:35.029Z,94.30
2017-05-04T05:26:04.029Z,94.20
2017-05-04T05:28:33.008Z,94.10
2017-05-04T05:31:02.030Z,94.10
2017-05-04T05:33:31.309Z,94.10
2017-05-04T05:36:00.279Z,94.00
2017-05-04T05:38:29.228Z,93.90
2017-05-04T05:40:58.946Z,93.80
2017-05-04T05:43:28.659Z,93.70
2017-05-04T05:45:58.665Z,93.70
2017-05-04T05:48:28.370Z,93.20
2017-05-04T05:50:58.009Z,93.00
2017-05-04T05:53:27.146Z,92.90
2017-05-04T05:55:56.099Z,92.60
2017-05-04T05:58:25.088Z,92.60
2017-05-04T06:00:54.058Z,92.60
2017-05-04T06:03:23.024Z,92.50
2017-05-04T06:05:53.090Z,92.40
2017-05-04T06:08:22.057Z,92.40
2017-05-04T06:10:51.011Z,92.60
2017-05-04T06:13:20.282Z,92.20
2017-05-04T06:15:49.293Z,92.10
2017-05-04T06:18:18.251Z,92.10
2017-05-04T06:20:47.363Z,92.00
2017-05-04T06:23:16.313Z,91.90
2017-05-04T06:25:45.287Z,91.70
2017-05-04T06:28:14.293Z,91.40
2017-05-04T06:30:43.287Z,91.20
2017-05-04T06:33:12.627Z,91.20
2017-05-04T06:35:41.586Z,91.40
2017-05-04T06:38:10.571Z,91.50
2017-05-04T06:40:39.876Z,91.40
2017-05-04T06:43:08.840Z,91.30
2017-05-04T06:45:38.581Z,91.30
2017-05-04T06:48:07.561Z,91.20
2017-05-04T06:50:36.528Z,91.10
2017-05-04T06:53:06.600Z,91.10
2017-05-04T06:55:35.558Z,91.10
2017-05-04T06:58:04.522Z,91.10
2017-05-04T07:00:34.261Z,90.90
2017-05-04T07:03:03.218Z,90.80
2017-05-04T07:05:33.309Z,90.60
2017-05-04T07:08:02.271Z,90.50
2017-05-04T07:10:31.247Z,90.30
2017-05-04T07:13:00.597Z,90.20
2017-05-04T07:15:29.556Z,90.10
2017-05-04T07:17:58.536Z,89.80
2017-05-04T07:20:27.520Z,89.40
2017-05-04T07:22:56.487Z,88.40
2017-05-04T07:25:26.562Z,88.10
2017-05-04T07:27:55.522Z,87.40
2017-05-04T07:30:24.559Z,87.30
2017-05-04T07:32:53.535Z,87.40
2017-05-04T07:35:22.459Z,86.70
2017-05-04T07:37:52.103Z,86.50
2017-05-04T07:40:21.096Z,86.30
2017-05-04T07:42:50.427Z,85.60
2017-05-04T07:45:19.393Z,85.20
2017-05-04T07:47:48.378Z,85.10
2017-05-04T07:50:17.618Z,84.70
2017-05-04T07:52:46.597Z,84.80
2017-05-04T07:55:15.566Z,84.80
2017-05-04T07:57:44.902Z,84.60
2017-05-04T08:00:14.655Z,84.10
2017-05-04T08:02:43.614Z,84.50
2017-05-04T08:05:13.274Z,84.40
2017-05-04T08:07:42.290Z,84.30
2017-05-04T08:10:11.545Z,84.40
2017-05-04T08:12:40.522Z,84.00
2017-05-04T08:15:09.512Z,84.00
2017-05-04T08:17:38.520Z,84.00
2017-05-04T08:20:07.474Z,83.40
2017-05-04T08:22:37.578Z,83.00
2017-05-04T08:25:06.549Z,82.40
2017-05-04T08:27:35.503Z,82.00
2017-05-04T08:30:04.467Z,82.20
2017-05-04T08:32:34.185Z,81.30
2017-05-04T08:35:04.243Z,80.40
2017-05-04T08:37:33.209Z,80.30
2017-05-04T08:40:02.210Z,80.60
2017-05-04T08:42:31.218Z,80.80
2017-05-04T08:45:00.184Z,81.30
2017-05-04T08:47:29.512Z,81.10
2017-05-04T08:49:58.497Z,80.50
2017-05-04T08:52:27.451Z,80.20
2017-05-04T08:54:56.819Z,80.00
2017-05-04T08:57:25.805Z,80.00
2017-05-04T08:59:54.762Z,80.10
2017-05-04T09:02:24.016Z,80.00
2017-05-04T09:04:53.724Z,79.70
2017-05-04T09:07:23.822Z,79.40
2017-05-04T09:09:53.547Z,79.10
2017-05-04T09:12:23.531Z,78.40
2017-05-04T09:14:52.473Z,77.90
2017-05-04T09:17:21.621Z,78.20
2017-05-04T09:19:51.013Z,77.20
2017-05-04T09:22:19.936Z,76.70
2017-05-04T09:24:48.932Z,75.90
2017-05-04T09:27:18.645Z,75.50
2017-05-04T09:29:48.371Z,75.70
2017-05-04T09:32:17.615Z,75.40
2017-05-04T09:34:46.582Z,74.50
2017-05-04T09:37:15.566Z,75.10
2017-05-04T09:39:44.570Z,73.80
2017-05-04T09:42:13.602Z,73.60
2017-05-04T09:44:43.800Z,73.40
2017-05-04T09:47:13.554Z,73.70
2017-05-04T09:49:42.519Z,73.00
2017-05-04T09:52:12.264Z,71.90
2017-05-04T09:54:41.242Z,71.70
2017-05-04T09:57:10.589Z,71.40
2017-05-04T09:59:39.514Z,71.20
2017-05-04T10:02:08.487Z,70.30
2017-05-04T10:04:37.729Z,68.90
2017-05-04T10:07:06.728Z,69.20
2017-05-04T10:09:35.675Z,69.60
2017-05-04T10:12:04.664Z,68.50
2017-05-04T10:14:34.279Z,68.00
2017-05-04T10:17:03.659Z,66.30
2017-05-04T10:19:32.632Z,65.50
2017-05-04T10:22:01.623Z,63.20
2017-05-04T10:24:30.946Z,63.00
2017-05-04T10:26:59.918Z,60.30
2017-05-04T10:29:28.900Z,59.10
2017-05-04T10:31:57.851Z,60.10
2017-05-04T10:34:26.954Z,59.70
2017-05-04T10:36:55.930Z,58.70
2017-05-04T10:39:24.901Z,57.20
2017-05-04T10:41:54.983Z,57.60
2017-05-04T10:44:23.946Z,57.80
2017-05-04T10:46:52.925Z,56.50
2017-05-04T10:49:21.916Z,56.20
2017-05-04T10:51:50.884Z,55.70
2017-05-04T10:54:20.967Z,55.90
2017-05-04T10:56:49.946Z,55.90
2017-05-04T10:59:18.935Z,55.90
2017-05-04T11:01:47.941Z,55.70
2017-05-04T11:04:17.012Z,54.70
2017-05-04T11:06:46.022Z,52.90
2017-05-04T11:09:14.976Z,53.70
2017-05-04T11:11:43.958Z,54.30
2017-05-04T11:14:12.947Z,55.50
2017-05-04T11:16:41.931Z,55.20
2017-05-04T11:19:11.554Z,55.10
2017-05-04T11:21:40.903Z,55.40
2017-05-04T11:24:09.874Z,55.30
2017-05-04T11:26:38.897Z,56.20
2017-05-04T11:29:07.887Z,55.00
2017-05-04T11:31:36.841Z,55.40
2017-05-04T11:34:06.349Z,55.60
2017-05-04T11:36:35.297Z,54.80
2017-05-04T11:39:04.991Z,53.20
2017-05-04T11:41:34.709Z,51.40
2017-05-04T11:44:04.393Z,50.10
2017-05-04T11:46:33.692Z,49.10
2017-05-04T11:49:02.737Z,49.10
2017-05-04T11:51:31.739Z,49.10
2017-05-04T11:54:01.053Z,49.70
2017-05-04T11:56:30.023Z,49.50
2017-05-04T11:58:58.980Z,49.10
2017-05-04T12:01:29.119Z,49.40
2017-05-04T12:03:58.135Z,50.30
2017-05-04T12:06:27.076Z,51.10
2017-05-04T12:08:57.057Z,47.30
2017-05-04T12:11:26.028Z,46.60
2017-05-04T12:13:55.004Z,43.90
2017-05-04T12:16:24.009Z,42.60
2017-05-04T12:18:53.006Z,42.20
2017-05-04T12:21:22.323Z,43.00
2017-05-04T12:23:51.297Z,44.80
2017-05-04T12:26:20.156Z,46.70
2017-05-04T12:28:49.171Z,46.70
2017-05-04T12:31:18.121Z,46.70
2017-05-04T12:33:48.111Z,47.40
2017-05-04T12:36:17.056Z,47.50
2017-05-04T12:38:46.010Z,47.60
2017-05-04T12:41:16.105Z,47.50
2017-05-04T12:43:45.113Z,48.50
2017-05-04T12:46:14.813Z,49.40
2017-05-04T12:48:44.185Z,51.40
2017-05-04T12:51:13.144Z,52.90
2017-05-04T12:53:42.117Z,53.50
2017-05-04T12:56:11.851Z,53.80
2017-05-04T12:58:40.881Z,53.80
2017-05-04T13:01:10.161Z,54.80
2017-05-04T13:03:39.128Z,56.00
2017-05-04T13:06:08.104Z,56.80
2017-05-04T13:08:37.102Z,57.70
2017-05-04T13:11:06.069Z,58.00
2017-05-04T13:13:35.781Z,58.10
2017-05-04T13:16:05.488Z,58.90
2017-05-04T13:18:35.556Z,60.30
2017-05-04T13:21:04.538Z,60.90
2017-05-04T13:23:33.490Z,62.10
2017-05-04T13:26:02.748Z,63.70
2017-05-04T13:28:31.718Z,63.90
2017-05-04T13:31:00.732Z,65.10
2017-05-04T13:33:29.730Z,65.90
2017-05-04T13:35:58.691Z,66.20
2017-05-04T13:38:27.946Z,66.30
2017-05-04T13:40:57.703Z,66.40
2017-05-04T13:43:26.712Z,66.30
2017-05-04T13:45:56.016Z,65.50
2017-05-04T13:48:24.980Z,64.40
2017-05-04T13:50:53.915Z,68.00
2017-05-04T13:53:23.931Z,71.00
2017-05-04T13:55:52.938Z,74.10
2017-05-04T13:58:21.943Z,75.10
2017-05-04T14:00:51.275Z,74.80
2017-05-04T14:03:20.160Z,74.60
2017-05-04T14:05:49.150Z,74.90
2017-05-04T14:08:18.145Z,74.10
2017-05-04T14:10:47.132Z,71.90
2017-05-04T14:13:16.430Z,68.30
2017-05-04T14:15:45.421Z,68.60
2017-05-04T14:18:14.394Z,68.70
2017-05-04T14:20:43.402Z,66.60
2017-05-04T14:23:12.379Z,63.80
2017-05-04T14:25:41.740Z,64.10
2017-05-04T14:28:11.423Z,63.30
2017-05-04T14:30:40.389Z,64.40
2017-05-04T14:33:09.386Z,66.10
2017-05-04T14:35:38.342Z,67.60
2017-05-04T14:38:07.593Z,70.40
2017-05-04T14:40:36.575Z,71.40
2017-05-04T14:43:05.519Z,73.60
2017-05-04T14:45:34.861Z,76.10
2017-05-04T14:48:03.824Z,77.80
2017-05-04T14:50:32.779Z,78.50
2017-05-04T14:53:02.761Z,79.10
2017-05-04T14:55:31.765Z,80.00
2017-05-04T14:58:00.736Z,80.60
2017-05-04T15:00:29.797Z,81.30
2017-05-04T15:02:58.793Z,80.60
2017-05-04T15:05:27.746Z,80.50
2017-05-04T15:07:57.453Z,80.20
2017-05-04T15:10:27.181Z,80.10
2017-05-04T15:12:56.154Z,79.90
2017-05-04T15:15:25.909Z,79.10
2017-05-04T15:17:54.894Z,79.00
2017-05-04T15:20:24.188Z,79.20
2017-05-04T15:22:53.155Z,80.50
2017-05-04T15:25:22.126Z,80.50
2017-05-04T15:27:51.874Z,81.40
2017-05-04T15:30:20.846Z,82.50
2017-05-04T15:32:50.117Z,83.30
2017-05-04T15:35:19.116Z,83.70
2017-05-04T15:37:48.817Z,84.40
2017-05-04T15:40:17.797Z,84.90
2017-05-04T15:42:46.769Z,85.50
2017-05-04T15:45:16.072Z,85.90
2017-05-04T15:47:45.089Z,86.50
2017-05-04T15:50:14.057Z,87.00
2017-05-04T15:52:43.361Z,87.00
2017-05-04T15:55:12.227Z,87.20
2017-05-04T15:57:41.250Z,88.00
2017-05-04T16:00:10.253Z,88.30
2017-05-04T16:02:39.261Z,87.90
2017-05-04T16:05:09.313Z,88.00
2017-05-04T16:07:38.279Z,87.60
2017-05-04T16:10:07.256Z,87.30
2017-05-04T16:12:36.270Z,87.10
2017-05-04T16:15:05.248Z,87.10
2017-05-04T16:17:35.335Z,87.40
2017-05-04T16:20:04.320Z,87.70
2017-05-04T16:22:33.328Z,87.90
2017-05-04T16:25:03.440Z,89.00
2017-05-04T16:27:32.421Z,88.70
2017-05-04T16:30:01.421Z,89.20
2017-05-04T16:32:30.414Z,90.40
2017-05-04T16:34:59.448Z,90.80
2017-05-04T16:37:28.777Z,91.00
2017-05-04T16:39:57.761Z,91.10
2017-05-04T16:42:26.725Z,91.30
2017-05-04T16:44:55.729Z,91.80
2017-05-04T16:47:24.711Z,92.70
2017-05-04T16:49:53.706Z,92.60
2017-05-04T16:52:22.702Z,92.70
2017-05-04T16:54:52.019Z,92.80
2017-05-04T16:57:21.006Z,92.90
2017-05-04T16:59:49.995Z,92.90
2017-05-04T17:02:19.331Z,93.00
2017-05-04T17:04:48.304Z,93.00
2017-05-04T17:07:17.265Z,93.00
2017-05-04T17:09:46.280Z,93.00
2017-05-04T17:12:15.157Z,92.90
2017-05-04T17:14:44.210Z,92.90
2017-05-04T17:17:13.217Z,92.90
2017-05-04T17:19:42.585Z,93.00
2017-05-04T17:22:12.299Z,92.90
2017-05-04T17:24:42.318Z,93.00
2017-05-04T17:27:12.017Z,92.90
2017-05-04T17:29:41.729Z,92.80
2017-05-04T17:32:11.452Z,92.90
2017-05-04T17:34:40.413Z,93.00
2017-05-04T17:37:09.444Z,92.90
2017-05-04T17:39:38.432Z,93.10
2017-05-04T17:42:07.696Z,93.20
2017-05-04T17:44:36.691Z,93.50
2017-05-04T17:47:05.650Z,93.60
2017-05-04T17:49:34.644Z,93.40
2017-05-04T17:52:03.618Z,93.50
2017-05-04T17:54:33.094Z,93.50
2017-05-04T17:57:02.087Z,93.60
2017-05-04T17:59:31.095Z,93.60
2017-05-04T18:02:00.063Z,93.50
2017-05-04T18:04:29.071Z,93.80
2017-05-04T18:06:58.407Z,93.70
2017-05-04T18:09:27.402Z,93.70
2017-05-04T18:11:56.389Z,93.80
2017-05-04T18:14:25.702Z,93.80
2017-05-04T18:16:54.587Z,93.90
2017-05-04T18:19:24.334Z,93.60
2017-05-04T18:21:53.340Z,93.60
2017-05-04T18:24:22.333Z,93.20
2017-05-04T18:26:51.665Z,93.40
2017-05-04T18:29:20.647Z,93.50
2017-05-04T18:31:49.629Z,93.50
2017-05-04T18:34:18.636Z,93.50
2017-05-04T18:36:47.610Z,93.50
2017-05-04T18:39:16.599Z,93.60
2017-05-04T18:41:45.574Z,93.50
2017-05-04T18:44:14.915Z,93.60
2017-05-04T18:46:43.906Z,93.50
2017-05-04T18:49:12.927Z,93.60
2017-05-04T18:51:43.112Z,93.60
2017-05-04T18:54:12.153Z,93.70
2017-05-04T18:56:41.152Z,94.50
2017-05-04T18:59:10.354Z,94.20
2017-05-04T19:01:39.352Z,94.20
2017-05-04T19:04:08.341Z,94.30
2017-05-04T19:06:37.655Z,94.20
2017-05-04T19:09:06.620Z,94.30
2017-05-04T19:11:35.618Z,94.40
2017-05-04T19:14:04.620Z,94.40
2017-05-04T19:16:33.631Z,94.50
2017-05-04T19:19:02.645Z,94.60
2017-05-04T19:21:31.621Z,94.70
2017-05-04T19:24:01.906Z,94.80
2017-05-04T19:26:30.896Z,94.90
2017-05-04T19:28:59.889Z,95.00
2017-05-04T19:31:29.274Z,95.10
2017-05-04T19:33:58.297Z,95.20
2017-05-04T19:36:27.276Z,95.10
2017-05-04T19:38:56.533Z,95.10
2017-05-04T19:41:26.268Z,95.10
2017-05-04T19:43:55.225Z,95.00
2017-05-04T19:46:24.238Z,94.90
2017-05-04T19:48:53.950Z,94.90
2017-05-04T19:53:53.088Z,95.00
2017-05-04T19:56:22.041Z,95.00
2017-05-04T19:58:51.806Z,95.40
2017-05-04T20:01:20.701Z,95.20
2017-05-04T20:03:49.771Z,95.10
2017-05-04T20:06:19.020Z,95.10
2017-05-04T20:08:48.726Z,95.10
2017-05-04T20:11:17.694Z,95.00
2017-05-04T20:13:46.694Z,95.00
2017-05-04T20:16:15.614Z,94.80
2017-05-04T20:18:44.643Z,94.90
2017-05-04T20:21:13.594Z,95.00
2017-05-04T20:23:43.694Z,94.90
2017-05-04T20:26:12.658Z,95.10
2017-05-04T20:28:41.611Z,95.00
2017-05-04T20:31:10.946Z,95.00
2017-05-04T20:33:39.899Z,95.00
2017-05-04T20:36:08.858Z,95.00
2017-05-04T20:38:37.827Z,95.00
2017-05-04T20:41:06.700Z,94.90
2017-05-04T20:43:36.028Z,94.90
2017-05-04T20:46:04.988Z,94.90
2017-05-04T20:48:33.870Z,94.80
2017-05-04T20:51:03.208Z,94.80
2017-05-04T20:53:32.183Z,94.80
2017-05-04T20:56:01.148Z,94.80
2017-05-04T20:58:30.471Z,94.90
2017-05-04T21:00:59.492Z,95.00
2017-05-04T21:03:29.198Z,94.80
2017-05-04T21:05:59.274Z,94.50
2017-05-04T21:08:28.133Z,94.60
2017-05-04T21:10:57.109Z,94.50
2017-05-04T21:13:35.363Z,94.60
2017-05-04T21:16:04.331Z,94.60
2017-05-04T21:18:33.566Z,94.70
2017-05-04T21:21:04.120Z,94.60
2017-05-04T21:23:33.483Z,94.70
2017-05-04T21:26:02.371Z,94.50
2017-05-04T21:28:31.996Z,94.30
2017-05-04T21:31:01.370Z,94.40
2017-05-04T21:33:30.382Z,94.40
2017-05-04T21:35:59.326Z,94.40
2017-05-04T21:38:28.315Z,94.50
2017-05-04T21:40:57.283Z,94.60
2017-05-04T21:43:26.890Z,94.50
2017-05-04T21:45:55.880Z,94.50
2017-05-04T21:48:24.849Z,94.50
2017-05-04T21:50:53.868Z,94.50
2017-05-04T21:53:23.590Z,94.50
2017-05-04T21:55:52.540Z,94.60
2017-05-04T21:58:21.499Z,94.70
2017-05-04T22:00:50.460Z,94.80
2017-05-04T22:03:19.719Z,94.80
2017-05-04T22:05:48.991Z,94.80
2017-05-04T22:08:17.928Z,94.90
2017-05-04T22:10:47.945Z,94.90
2017-05-04T22:13:17.639Z,94.90
2017-05-04T22:15:46.586Z,94.90
2017-05-04T22:18:15.821Z,95.00
2017-05-04T22:20:44.780Z,95.10
2017-05-04T22:23:14.053Z,95.20
2017-05-04T22:25:44.007Z,95.30
2017-05-04T22:28:12.962Z,95.40
2017-05-04T22:30:42.289Z,95.50
2017-05-04T22:33:11.222Z,95.60
2017-05-04T22:35:40.965Z,95.60
2017-05-04T22:38:10.305Z,95.60
2017-05-04T22:40:39.269Z,95.70
2017-05-04T22:43:08.128Z,95.70
2017-05-04T22:45:37.142Z,95.70
2017-05-04T22:48:06.116Z,95.70
2017-05-04T22:50:35.369Z,95.80
2017-05-04T22:53:04.322Z,95.90
2017-05-04T22:55:33.279Z,95.90
2017-05-04T22:58:02.246Z,96.10
2017-05-04T23:00:31.193Z,96.00
2017-05-04T23:03:00.462Z,96.00
2017-05-04T23:05:29.415Z,96.00
2017-05-04T23:07:58.377Z,96.00
2017-05-04T23:10:27.613Z,96.00
2017-05-04T23:12:57.319Z,95.90
2017-05-04T23:15:26.248Z,95.90
2017-05-04T23:17:55.249Z,95.80
2017-05-04T23:20:24.194Z,95.70
2017-05-04T23:22:53.897Z,95.80
2017-05-04T23:25:23.593Z,96.20
2017-05-04T23:27:52.583Z,95.80
2017-05-04T23:30:21.539Z,95.90
2017-05-04T23:32:50.892Z,95.90
2017-05-04T23:35:20.598Z,96.10
2017-05-04T23:37:50.335Z,95.70
2017-05-04T23:40:19.294Z,95.70
2017-05-04T23:42:49.001Z,95.70
2017-05-04T23:45:19.126Z,95.70
2017-05-04T23:47:48.815Z,95.80
2017-05-04T23:50:17.783Z,95.70
2017-05-04T23:52:46.777Z,95.70
2017-05-04T23:55:15.711Z,95.60
2017-05-04T23:57:45.445Z,95.60
